sensor_id;sensor_type;location;lat;lon;timestamp;P1;durP1;ratioP1;P2;durP2;ratioP2
58842;SDS011;44614;54.356;10.100;2024-03-23T00:54:35;7.75;;;2.05;;
58842;SDS011;44614;54.356;10.100;2024-03-23T00:57:01;14.13;;;2.60;;
58842;SDS011;44614;54.356;10.100;2024-03-23T00:59:26;13.02;;;3.15;;
58842;SDS011;44614;54.356;10.100;2024-03-23T01:01:53;7.78;;;1.80;;
58842;SDS011;44614;54.356;10.100;2024-03-23T01:04:19;8.38;;;1.92;;
58842;SDS011;44614;54.356;10.100;2024-03-23T01:06:45;13.80;;;2.78;;
58842;SDS011;44614;54.356;10.100;2024-03-23T01:09:10;6.25;;;2.17;;
58842;SDS011;44614;54.356;10.100;2024-03-23T01:11:36;6.80;;;1.98;;
58842;SDS011;44614;54.356;10.100;2024-03-23T01:14:02;13.68;;;2.20;;
58842;SDS011;44614;54.356;10.100;2024-03-23T01:16:28;9.18;;;1.67;;
58842;SDS011;44614;54.356;10.100;2024-03-23T01:18:53;21.10;;;2.78;;
58842;SDS011;44614;54.356;10.100;2024-03-23T01:21:19;12.93;;;2.40;;
58842;SDS011;44614;54.356;10.100;2024-03-23T01:23:44;10.05;;;2.13;;
58842;SDS011;44614;54.356;10.100;2024-03-23T01:26:10;13.95;;;2.25;;
58842;SDS011;44614;54.356;10.100;2024-03-23T01:28:35;8.40;;;2.78;;
58842;SDS011;44614;54.356;10.100;2024-03-23T01:31:00;12.32;;;1.90;;
58842;SDS011;44614;54.356;10.100;2024-03-23T01:33:26;9.85;;;3.00;;
58842;SDS011;44614;54.356;10.100;2024-03-23T01:35:51;7.63;;;2.05;;
58842;SDS011;44614;54.356;10.100;2024-03-23T01:38:17;10.80;;;4.40;;
58842;SDS011;44614;54.356;10.100;2024-03-23T01:40:42;5.90;;;1.67;;
58842;SDS011;44614;54.356;10.100;2024-03-23T01:43:08;21.48;;;2.17;;
58842;SDS011;44614;54.356;10.100;2024-03-23T01:45:34;13.15;;;2.15;;
58842;SDS011;44614;54.356;10.100;2024-03-23T01:48:00;16.00;;;2.17;;
58842;SDS011;44614;54.356;10.100;2024-03-23T01:50:26;11.38;;;3.03;;
58842;SDS011;44614;54.356;10.100;2024-03-23T01:52:52;16.27;;;1.97;;
58842;SDS011;44614;54.356;10.100;2024-03-23T01:55:18;7.70;;;1.98;;
58842;SDS011;44614;54.356;10.100;2024-03-23T01:57:44;12.48;;;2.17;;
58842;SDS011;44614;54.356;10.100;2024-03-23T02:00:10;5.40;;;1.85;;
58842;SDS011;44614;54.356;10.100;2024-03-23T02:02:41;10.02;;;2.75;;
58842;SDS011;44614;54.356;10.100;2024-03-23T02:05:13;2.58;;;1.73;;
58842;SDS011;44614;54.356;10.100;2024-03-23T02:07:39;8.63;;;2.40;;
58842;SDS011;44614;54.356;10.100;2024-03-23T02:10:06;7.32;;;1.25;;
58842;SDS011;44614;54.356;10.100;2024-03-23T02:12:32;5.82;;;1.27;;
58842;SDS011;44614;54.356;10.100;2024-03-23T02:14:58;4.97;;;1.35;;
58842;SDS011;44614;54.356;10.100;2024-03-23T02:17:23;19.15;;;2.05;;
58842;SDS011;44614;54.356;10.100;2024-03-23T02:19:48;11.63;;;2.70;;
58842;SDS011;44614;54.356;10.100;2024-03-23T02:22:14;10.23;;;2.25;;
58842;SDS011;44614;54.356;10.100;2024-03-23T02:24:41;12.10;;;2.58;;
58842;SDS011;44614;54.356;10.100;2024-03-23T02:27:06;8.70;;;1.90;;
58842;SDS011;44614;54.356;10.100;2024-03-23T02:29:32;10.30;;;3.42;;
58842;SDS011;44614;54.356;10.100;2024-03-23T02:31:57;9.57;;;2.78;;
58842;SDS011;44614;54.356;10.100;2024-03-23T02:34:24;5.80;;;2.00;;
58842;SDS011;44614;54.356;10.100;2024-03-23T02:36:49;4.50;;;1.65;;
58842;SDS011;44614;54.356;10.100;2024-03-23T02:39:15;10.93;;;2.08;;
58842;SDS011;44614;54.356;10.100;2024-03-23T02:41:40;8.75;;;1.80;;
58842;SDS011;44614;54.356;10.100;2024-03-23T02:44:06;9.43;;;1.60;;
58842;SDS011;44614;54.356;10.100;2024-03-23T02:46:32;18.52;;;3.10;;
58842;SDS011;44614;54.356;10.100;2024-03-23T02:48:57;18.80;;;2.08;;
58842;SDS011;44614;54.356;10.100;2024-03-23T02:51:22;10.18;;;2.42;;
58842;SDS011;44614;54.356;10.100;2024-03-23T02:53:48;18.30;;;2.15;;
58842;SDS011;44614;54.356;10.100;2024-03-23T02:56:13;10.73;;;2.00;;
58842;SDS011;44614;54.356;10.100;2024-03-23T02:58:41;10.02;;;2.28;;
58842;SDS011;44614;54.356;10.100;2024-03-23T03:01:07;14.65;;;1.55;;
58842;SDS011;44614;54.356;10.100;2024-03-23T03:03:33;10.38;;;2.30;;
58842;SDS011;44614;54.356;10.100;2024-03-23T03:05:58;13.43;;;2.70;;
58842;SDS011;44614;54.356;10.100;2024-03-23T03:08:23;10.15;;;1.92;;
58842;SDS011;44614;54.356;10.100;2024-03-23T03:10:49;10.15;;;2.92;;
58842;SDS011;44614;54.356;10.100;2024-03-23T03:13:14;13.13;;;2.10;;
58842;SDS011;44614;54.356;10.100;2024-03-23T03:15:41;7.78;;;3.28;;
58842;SDS011;44614;54.356;10.100;2024-03-23T03:18:08;4.13;;;1.48;;
58842;SDS011;44614;54.356;10.100;2024-03-23T03:20:33;15.20;;;2.35;;
58842;SDS011;44614;54.356;10.100;2024-03-23T03:22:59;10.45;;;3.45;;
58842;SDS011;44614;54.356;10.100;2024-03-23T03:25:25;9.35;;;1.60;;
58842;SDS011;44614;54.356;10.100;2024-03-23T03:27:50;10.25;;;1.67;;
58842;SDS011;44614;54.356;10.100;2024-03-23T03:30:16;9.88;;;2.60;;
58842;SDS011;44614;54.356;10.100;2024-03-23T03:32:41;1.83;;;1.10;;
58842;SDS011;44614;54.356;10.100;2024-03-23T03:35:07;7.65;;;2.13;;
58842;SDS011;44614;54.356;10.100;2024-03-23T03:37:32;10.02;;;1.88;;
58842;SDS011;44614;54.356;10.100;2024-03-23T03:39:57;8.57;;;1.52;;
58842;SDS011;44614;54.356;10.100;2024-03-23T03:42:23;9.90;;;1.95;;
58842;SDS011;44614;54.356;10.100;2024-03-23T03:44:48;12.65;;;2.05;;
58842;SDS011;44614;54.356;10.100;2024-03-23T03:47:14;18.50;;;2.55;;
58842;SDS011;44614;54.356;10.100;2024-03-23T03:49:39;10.35;;;2.35;;
58842;SDS011;44614;54.356;10.100;2024-03-23T03:52:05;8.57;;;1.88;;
58842;SDS011;44614;54.356;10.100;2024-03-23T03:54:32;9.57;;;1.33;;
58842;SDS011;44614;54.356;10.100;2024-03-23T03:56:58;12.48;;;2.22;;
58842;SDS011;44614;54.356;10.100;2024-03-23T03:59:23;7.68;;;2.15;;
58842;SDS011;44614;54.356;10.100;2024-03-23T04:01:49;10.20;;;3.83;;
58842;SDS011;44614;54.356;10.100;2024-03-23T04:04:14;11.07;;;2.25;;
58842;SDS011;44614;54.356;10.100;2024-03-23T04:06:41;14.27;;;1.77;;
58842;SDS011;44614;54.356;10.100;2024-03-23T04:09:08;6.10;;;1.98;;
58842;SDS011;44614;54.356;10.100;2024-03-23T04:11:33;10.93;;;1.83;;
58842;SDS011;44614;54.356;10.100;2024-03-23T04:14:00;6.25;;;1.80;;
58842;SDS011;44614;54.356;10.100;2024-03-23T04:16:28;10.63;;;2.90;;
58842;SDS011;44614;54.356;10.100;2024-03-23T04:18:55;8.88;;;2.42;;
58842;SDS011;44614;54.356;10.100;2024-03-23T04:21:21;16.77;;;1.85;;
58842;SDS011;44614;54.356;10.100;2024-03-23T04:23:47;7.50;;;1.45;;
58842;SDS011;44614;54.356;10.100;2024-03-23T04:26:12;7.22;;;1.60;;
58842;SDS011;44614;54.356;10.100;2024-03-23T04:28:38;6.45;;;1.90;;
58842;SDS011;44614;54.356;10.100;2024-03-23T04:31:04;16.08;;;2.85;;
58842;SDS011;44614;54.356;10.100;2024-03-23T04:33:29;8.17;;;1.77;;
58842;SDS011;44614;54.356;10.100;2024-03-23T04:35:55;3.33;;;1.40;;
58842;SDS011;44614;54.356;10.100;2024-03-23T04:38:20;12.63;;;3.03;;
58842;SDS011;44614;54.356;10.100;2024-03-23T04:40:53;9.65;;;2.90;;
58842;SDS011;44614;54.356;10.100;2024-03-23T04:43:20;6.45;;;1.42;;
58842;SDS011;44614;54.356;10.100;2024-03-23T04:45:45;7.20;;;1.63;;
58842;SDS011;44614;54.356;10.100;2024-03-23T04:48:10;9.93;;;1.77;;
58842;SDS011;44614;54.356;10.100;2024-03-23T04:50:37;3.60;;;2.17;;
58842;SDS011;44614;54.356;10.100;2024-03-23T04:53:03;13.30;;;2.33;;
58842;SDS011;44614;54.356;10.100;2024-03-23T04:55:28;15.30;;;2.35;;
58842;SDS011;44614;54.356;10.100;2024-03-23T04:57:54;5.35;;;1.67;;
58842;SDS011;44614;54.356;10.100;2024-03-23T05:00:19;11.60;;;2.22;;
58842;SDS011;44614;54.356;10.100;2024-03-23T05:02:45;10.43;;;2.60;;
58842;SDS011;44614;54.356;10.100;2024-03-23T05:05:11;5.82;;;1.65;;
58842;SDS011;44614;54.356;10.100;2024-03-23T05:07:37;7.53;;;1.92;;
58842;SDS011;44614;54.356;10.100;2024-03-23T05:10:03;6.15;;;3.22;;
58842;SDS011;44614;54.356;10.100;2024-03-23T05:12:28;19.38;;;3.50;;
58842;SDS011;44614;54.356;10.100;2024-03-23T05:14:54;9.27;;;2.28;;
58842;SDS011;44614;54.356;10.100;2024-03-23T05:17:19;17.52;;;3.53;;
58842;SDS011;44614;54.356;10.100;2024-03-23T05:19:44;8.88;;;2.22;;
58842;SDS011;44614;54.356;10.100;2024-03-23T05:22:10;12.60;;;3.88;;
58842;SDS011;44614;54.356;10.100;2024-03-23T05:24:35;11.73;;;2.75;;
58842;SDS011;44614;54.356;10.100;2024-03-23T05:27:01;12.20;;;2.08;;
58842;SDS011;44614;54.356;10.100;2024-03-23T05:29:26;10.93;;;2.25;;
58842;SDS011;44614;54.356;10.100;2024-03-23T05:31:51;12.30;;;2.38;;
58842;SDS011;44614;54.356;10.100;2024-03-23T05:34:17;15.05;;;3.50;;
58842;SDS011;44614;54.356;10.100;2024-03-23T05:36:43;10.65;;;2.70;;
58842;SDS011;44614;54.356;10.100;2024-03-23T05:39:08;9.15;;;1.95;;
58842;SDS011;44614;54.356;10.100;2024-03-23T05:41:34;25.05;;;4.70;;
58842;SDS011;44614;54.356;10.100;2024-03-23T05:44:01;15.80;;;2.78;;
58842;SDS011;44614;54.356;10.100;2024-03-23T05:46:27;21.20;;;2.93;;
58842;SDS011;44614;54.356;10.100;2024-03-23T05:48:52;12.30;;;3.38;;
58842;SDS011;44614;54.356;10.100;2024-03-23T05:51:25;7.55;;;2.97;;
58842;SDS011;44614;54.356;10.100;2024-03-23T05:53:50;15.18;;;2.97;;
58842;SDS011;44614;54.356;10.100;2024-03-23T05:56:19;10.75;;;3.30;;
58842;SDS011;44614;54.356;10.100;2024-03-23T05:58:45;12.13;;;2.70;;
58842;SDS011;44614;54.356;10.100;2024-03-23T06:01:11;10.65;;;3.45;;
58842;SDS011;44614;54.356;10.100;2024-03-23T06:03:37;17.80;;;3.97;;
58842;SDS011;44614;54.356;10.100;2024-03-23T06:06:03;11.45;;;4.15;;
58842;SDS011;44614;54.356;10.100;2024-03-23T06:08:29;18.02;;;3.72;;
58842;SDS011;44614;54.356;10.100;2024-03-23T06:10:54;17.75;;;3.95;;
58842;SDS011;44614;54.356;10.100;2024-03-23T06:13:20;14.27;;;4.47;;
58842;SDS011;44614;54.356;10.100;2024-03-23T06:15:49;14.32;;;3.40;;
58842;SDS011;44614;54.356;10.100;2024-03-23T06:18:15;10.40;;;3.33;;
58842;SDS011;44614;54.356;10.100;2024-03-23T06:20:40;9.57;;;3.25;;
58842;SDS011;44614;54.356;10.100;2024-03-23T06:23:06;10.45;;;3.20;;
58842;SDS011;44614;54.356;10.100;2024-03-23T06:25:31;21.33;;;3.90;;
58842;SDS011;44614;54.356;10.100;2024-03-23T06:27:57;14.57;;;3.28;;
58842;SDS011;44614;54.356;10.100;2024-03-23T06:30:23;15.23;;;4.03;;
58842;SDS011;44614;54.356;10.100;2024-03-23T06:32:49;14.27;;;4.05;;
58842;SDS011;44614;54.356;10.100;2024-03-23T06:35:14;22.63;;;4.47;;
58842;SDS011;44614;54.356;10.100;2024-03-23T06:37:40;11.55;;;3.30;;
58842;SDS011;44614;54.356;10.100;2024-03-23T06:40:06;4.93;;;2.38;;
58842;SDS011;44614;54.356;10.100;2024-03-23T06:42:34;10.95;;;3.00;;
58842;SDS011;44614;54.356;10.100;2024-03-23T06:45:00;8.10;;;3.67;;
58842;SDS011;44614;54.356;10.100;2024-03-23T06:47:26;11.68;;;4.13;;
58842;SDS011;44614;54.356;10.100;2024-03-23T06:49:51;11.13;;;3.03;;
58842;SDS011;44614;54.356;10.100;2024-03-23T06:52:17;12.77;;;4.50;;
58842;SDS011;44614;54.356;10.100;2024-03-23T06:54:42;28.42;;;4.85;;
58842;SDS011;44614;54.356;10.100;2024-03-23T06:57:09;17.58;;;3.67;;
58842;SDS011;44614;54.356;10.100;2024-03-23T06:59:37;18.67;;;3.72;;
58842;SDS011;44614;54.356;10.100;2024-03-23T07:02:03;7.22;;;3.45;;
58842;SDS011;44614;54.356;10.100;2024-03-23T07:04:29;9.45;;;3.75;;
58842;SDS011;44614;54.356;10.100;2024-03-23T07:06:54;19.50;;;4.55;;
58842;SDS011;44614;54.356;10.100;2024-03-23T07:09:20;12.15;;;3.00;;
58842;SDS011;44614;54.356;10.100;2024-03-23T07:11:50;10.00;;;3.28;;
58842;SDS011;44614;54.356;10.100;2024-03-23T07:14:15;11.32;;;3.47;;
58842;SDS011;44614;54.356;10.100;2024-03-23T07:16:41;14.27;;;3.00;;
58842;SDS011;44614;54.356;10.100;2024-03-23T07:19:06;12.73;;;4.80;;
58842;SDS011;44614;54.356;10.100;2024-03-23T07:21:31;13.82;;;3.72;;
58842;SDS011;44614;54.356;10.100;2024-03-23T07:23:57;16.40;;;3.90;;
58842;SDS011;44614;54.356;10.100;2024-03-23T07:26:22;13.40;;;3.83;;
58842;SDS011;44614;54.356;10.100;2024-03-23T07:28:48;14.32;;;4.05;;
58842;SDS011;44614;54.356;10.100;2024-03-23T07:31:14;17.38;;;3.78;;
58842;SDS011;44614;54.356;10.100;2024-03-23T07:33:44;10.88;;;5.20;;
58842;SDS011;44614;54.356;10.100;2024-03-23T07:36:10;15.45;;;3.60;;
58842;SDS011;44614;54.356;10.100;2024-03-23T07:38:36;11.55;;;3.78;;
58842;SDS011;44614;54.356;10.100;2024-03-23T07:41:02;16.75;;;4.30;;
58842;SDS011;44614;54.356;10.100;2024-03-23T07:43:35;14.77;;;4.15;;
58842;SDS011;44614;54.356;10.100;2024-03-23T07:46:02;17.15;;;3.88;;
58842;SDS011;44614;54.356;10.100;2024-03-23T07:48:31;8.38;;;3.33;;
58842;SDS011;44614;54.356;10.100;2024-03-23T07:51:00;11.82;;;4.57;;
58842;SDS011;44614;54.356;10.100;2024-03-23T07:53:26;8.70;;;3.40;;
58842;SDS011;44614;54.356;10.100;2024-03-23T07:55:54;18.58;;;4.20;;
58842;SDS011;44614;54.356;10.100;2024-03-23T07:58:25;11.73;;;4.15;;
58842;SDS011;44614;54.356;10.100;2024-03-23T08:00:51;12.98;;;3.42;;
58842;SDS011;44614;54.356;10.100;2024-03-23T08:03:17;8.35;;;3.83;;
58842;SDS011;44614;54.356;10.100;2024-03-23T08:05:43;15.40;;;4.57;;
58842;SDS011;44614;54.356;10.100;2024-03-23T08:08:08;11.98;;;3.72;;
58842;SDS011;44614;54.356;10.100;2024-03-23T08:10:33;9.63;;;4.32;;
58842;SDS011;44614;54.356;10.100;2024-03-23T08:12:59;13.90;;;3.50;;
58842;SDS011;44614;54.356;10.100;2024-03-23T08:15:25;11.70;;;4.40;;
58842;SDS011;44614;54.356;10.100;2024-03-23T08:17:50;8.35;;;3.53;;
58842;SDS011;44614;54.356;10.100;2024-03-23T08:20:16;18.42;;;4.28;;
58842;SDS011;44614;54.356;10.100;2024-03-23T08:22:41;16.58;;;4.28;;
58842;SDS011;44614;54.356;10.100;2024-03-23T08:25:07;15.52;;;3.70;;
58842;SDS011;44614;54.356;10.100;2024-03-23T08:27:32;30.27;;;4.68;;
58842;SDS011;44614;54.356;10.100;2024-03-23T08:29:58;16.08;;;3.75;;
58842;SDS011;44614;54.356;10.100;2024-03-23T08:32:23;20.65;;;3.78;;
58842;SDS011;44614;54.356;10.100;2024-03-23T08:34:49;23.38;;;3.85;;
58842;SDS011;44614;54.356;10.100;2024-03-23T08:37:14;17.17;;;4.75;;
58842;SDS011;44614;54.356;10.100;2024-03-23T08:39:39;6.88;;;2.95;;
58842;SDS011;44614;54.356;10.100;2024-03-23T08:42:05;9.80;;;3.05;;
58842;SDS011;44614;54.356;10.100;2024-03-23T08:44:31;2.10;;;1.17;;
58842;SDS011;44614;54.356;10.100;2024-03-23T08:46:56;3.97;;;0.63;;
58842;SDS011;44614;54.356;10.100;2024-03-23T08:49:22;2.50;;;0.52;;
58842;SDS011;44614;54.356;10.100;2024-03-23T08:51:47;1.00;;;0.20;;
58842;SDS011;44614;54.356;10.100;2024-03-23T08:54:12;0.93;;;0.30;;
58842;SDS011;44614;54.356;10.100;2024-03-23T08:56:38;2.83;;;0.60;;
58842;SDS011;44614;54.356;10.100;2024-03-23T08:59:03;0.75;;;0.30;;
58842;SDS011;44614;54.356;10.100;2024-03-23T09:01:29;2.67;;;0.32;;
58842;SDS011;44614;54.356;10.100;2024-03-23T09:03:54;2.72;;;0.77;;
58842;SDS011;44614;54.356;10.100;2024-03-23T09:06:20;1.77;;;0.90;;
58842;SDS011;44614;54.356;10.100;2024-03-23T09:08:46;4.50;;;1.00;;
58842;SDS011;44614;54.356;10.100;2024-03-23T09:11:12;3.53;;;1.55;;
58842;SDS011;44614;54.356;10.100;2024-03-23T09:13:38;6.15;;;1.20;;
58842;SDS011;44614;54.356;10.100;2024-03-23T09:16:05;3.50;;;0.82;;
58842;SDS011;44614;54.356;10.100;2024-03-23T09:18:31;4.55;;;0.57;;
58842;SDS011;44614;54.356;10.100;2024-03-23T09:20:58;7.20;;;0.93;;
58842;SDS011;44614;54.356;10.100;2024-03-23T09:23:24;9.13;;;1.52;;
58842;SDS011;44614;54.356;10.100;2024-03-23T09:25:49;4.85;;;0.82;;
58842;SDS011;44614;54.356;10.100;2024-03-23T09:28:15;2.40;;;0.70;;
58842;SDS011;44614;54.356;10.100;2024-03-23T09:30:40;6.30;;;0.70;;
58842;SDS011;44614;54.356;10.100;2024-03-23T09:33:09;7.50;;;1.17;;
58842;SDS011;44614;54.356;10.100;2024-03-23T09:35:42;5.47;;;1.33;;
58842;SDS011;44614;54.356;10.100;2024-03-23T09:38:08;3.90;;;0.88;;
58842;SDS011;44614;54.356;10.100;2024-03-23T09:40:34;4.50;;;0.98;;
58842;SDS011;44614;54.356;10.100;2024-03-23T09:43:06;3.53;;;0.85;;
58842;SDS011;44614;54.356;10.100;2024-03-23T09:47:58;5.80;;;1.02;;
58842;SDS011;44614;54.356;10.100;2024-03-23T09:50:24;4.28;;;1.20;;
58842;SDS011;44614;54.356;10.100;2024-03-23T09:52:49;3.88;;;0.63;;
58842;SDS011;44614;54.356;10.100;2024-03-23T09:55:15;2.60;;;0.95;;
58842;SDS011;44614;54.356;10.100;2024-03-23T09:57:41;5.15;;;2.03;;
58842;SDS011;44614;54.356;10.100;2024-03-23T10:00:07;2.10;;;1.00;;
58842;SDS011;44614;54.356;10.100;2024-03-23T10:02:34;4.15;;;0.98;;
58842;SDS011;44614;54.356;10.100;2024-03-23T10:05:00;6.57;;;1.80;;
58842;SDS011;44614;54.356;10.100;2024-03-23T10:07:26;3.17;;;1.35;;
58842;SDS011;44614;54.356;10.100;2024-03-23T10:09:53;4.72;;;1.25;;
58842;SDS011;44614;54.356;10.100;2024-03-23T10:12:19;6.63;;;1.75;;
58842;SDS011;44614;54.356;10.100;2024-03-23T10:14:45;4.30;;;1.30;;
58842;SDS011;44614;54.356;10.100;2024-03-23T10:17:12;3.23;;;1.27;;
58842;SDS011;44614;54.356;10.100;2024-03-23T10:19:43;4.05;;;1.40;;
58842;SDS011;44614;54.356;10.100;2024-03-23T10:22:17;4.07;;;1.02;;
58842;SDS011;44614;54.356;10.100;2024-03-23T10:24:46;6.45;;;1.25;;
58842;SDS011;44614;54.356;10.100;2024-03-23T10:27:15;2.75;;;0.90;;
58842;SDS011;44614;54.356;10.100;2024-03-23T10:29:45;4.10;;;1.10;;
58842;SDS011;44614;54.356;10.100;2024-03-23T10:32:11;1.73;;;0.85;;
58842;SDS011;44614;54.356;10.100;2024-03-23T10:34:39;1.83;;;0.90;;
58842;SDS011;44614;54.356;10.100;2024-03-23T10:37:05;3.75;;;0.80;;
58842;SDS011;44614;54.356;10.100;2024-03-23T10:39:35;4.35;;;0.93;;
58842;SDS011;44614;54.356;10.100;2024-03-23T10:42:05;2.70;;;0.82;;
58842;SDS011;44614;54.356;10.100;2024-03-23T10:44:32;3.70;;;0.77;;
58842;SDS011;44614;54.356;10.100;2024-03-23T10:46:58;6.13;;;1.00;;
58842;SDS011;44614;54.356;10.100;2024-03-23T10:49:28;8.55;;;2.42;;
58842;SDS011;44614;54.356;10.100;2024-03-23T10:51:56;3.88;;;0.63;;
58842;SDS011;44614;54.356;10.100;2024-03-23T10:54:24;2.40;;;1.48;;
58842;SDS011;44614;54.356;10.100;2024-03-23T10:56:51;7.60;;;1.52;;
58842;SDS011;44614;54.356;10.100;2024-03-23T10:59:20;7.88;;;0.80;;
58842;SDS011;44614;54.356;10.100;2024-03-23T11:01:59;1.55;;;0.70;;
58842;SDS011;44614;54.356;10.100;2024-03-23T11:06:56;3.40;;;1.35;;
58842;SDS011;44614;54.356;10.100;2024-03-23T11:12:08;7.47;;;1.20;;
58842;SDS011;44614;54.356;10.100;2024-03-23T11:14:54;4.88;;;1.00;;
58842;SDS011;44614;54.356;10.100;2024-03-23T11:17:22;1.73;;;1.13;;
58842;SDS011;44614;54.356;10.100;2024-03-23T11:19:59;4.15;;;0.68;;
58842;SDS011;44614;54.356;10.100;2024-03-23T11:28:11;3.08;;;1.00;;
58842;SDS011;44614;54.356;10.100;2024-03-23T11:30:36;3.80;;;1.42;;
58842;SDS011;44614;54.356;10.100;2024-03-23T11:33:05;3.38;;;1.20;;
58842;SDS011;44614;54.356;10.100;2024-03-23T11:35:38;3.72;;;1.27;;
58842;SDS011;44614;54.356;10.100;2024-03-23T11:40:30;4.50;;;0.70;;
58842;SDS011;44614;54.356;10.100;2024-03-23T11:43:00;4.40;;;1.58;;
58842;SDS011;44614;54.356;10.100;2024-03-23T11:45:28;6.00;;;1.23;;
58842;SDS011;44614;54.356;10.100;2024-03-23T11:50:36;2.92;;;1.05;;
58842;SDS011;44614;54.356;10.100;2024-03-23T11:53:07;1.75;;;0.75;;
58842;SDS011;44614;54.356;10.100;2024-03-23T11:55:39;1.52;;;0.32;;
58842;SDS011;44614;54.356;10.100;2024-03-23T11:58:08;3.80;;;0.55;;
58842;SDS011;44614;54.356;10.100;2024-03-23T12:00:34;5.40;;;1.20;;
58842;SDS011;44614;54.356;10.100;2024-03-23T12:03:01;3.88;;;0.63;;
58842;SDS011;44614;54.356;10.100;2024-03-23T12:05:27;3.70;;;0.70;;
58842;SDS011;44614;54.356;10.100;2024-03-23T12:07:52;2.75;;;0.50;;
58842;SDS011;44614;54.356;10.100;2024-03-23T12:10:19;4.05;;;1.20;;
58842;SDS011;44614;54.356;10.100;2024-03-23T12:12:45;5.93;;;0.82;;
58842;SDS011;44614;54.356;10.100;2024-03-23T12:15:10;9.60;;;1.48;;
58842;SDS011;44614;54.356;10.100;2024-03-23T12:17:38;1.98;;;0.77;;
58842;SDS011;44614;54.356;10.100;2024-03-23T12:20:04;5.13;;;0.93;;
58842;SDS011;44614;54.356;10.100;2024-03-23T12:22:30;3.13;;;1.23;;
58842;SDS011;44614;54.356;10.100;2024-03-23T12:24:55;3.70;;;1.02;;
58842;SDS011;44614;54.356;10.100;2024-03-23T12:27:21;1.90;;;1.00;;
58842;SDS011;44614;54.356;10.100;2024-03-23T12:29:47;6.68;;;1.17;;
58842;SDS011;44614;54.356;10.100;2024-03-23T12:32:13;10.63;;;0.88;;
58842;SDS011;44614;54.356;10.100;2024-03-23T12:37:05;5.68;;;0.88;;
58842;SDS011;44614;54.356;10.100;2024-03-23T12:39:34;3.30;;;0.52;;
58842;SDS011;44614;54.356;10.100;2024-03-23T12:42:00;3.37;;;0.50;;
58842;SDS011;44614;54.356;10.100;2024-03-23T12:44:28;2.40;;;1.20;;
58842;SDS011;44614;54.356;10.100;2024-03-23T12:46:53;8.77;;;1.02;;
58842;SDS011;44614;54.356;10.100;2024-03-23T12:49:19;6.90;;;0.50;;
58842;SDS011;44614;54.356;10.100;2024-03-23T12:51:46;2.92;;;0.90;;
58842;SDS011;44614;54.356;10.100;2024-03-23T12:54:20;1.45;;;0.70;;
58842;SDS011;44614;54.356;10.100;2024-03-23T12:56:46;10.17;;;1.70;;
58842;SDS011;44614;54.356;10.100;2024-03-23T12:59:12;7.22;;;3.28;;
58842;SDS011;44614;54.356;10.100;2024-03-23T13:01:38;5.77;;;1.13;;
58842;SDS011;44614;54.356;10.100;2024-03-23T13:04:04;6.33;;;1.67;;
58842;SDS011;44614;54.356;10.100;2024-03-23T13:06:29;3.17;;;0.50;;
58842;SDS011;44614;54.356;10.100;2024-03-23T13:08:59;3.47;;;0.88;;
58842;SDS011;44614;54.356;10.100;2024-03-23T13:11:26;9.30;;;1.00;;
58842;SDS011;44614;54.356;10.100;2024-03-23T13:13:51;3.97;;;0.52;;
58842;SDS011;44614;54.356;10.100;2024-03-23T13:16:17;7.90;;;0.83;;
58842;SDS011;44614;54.356;10.100;2024-03-23T13:18:43;2.33;;;1.02;;
58842;SDS011;44614;54.356;10.100;2024-03-23T13:21:08;3.05;;;0.88;;
58842;SDS011;44614;54.356;10.100;2024-03-23T13:23:34;3.77;;;1.20;;
58842;SDS011;44614;54.356;10.100;2024-03-23T13:26:01;4.80;;;1.27;;
58842;SDS011;44614;54.356;10.100;2024-03-23T13:28:26;1.98;;;0.63;;
58842;SDS011;44614;54.356;10.100;2024-03-23T13:30:55;9.00;;;1.03;;
58842;SDS011;44614;54.356;10.100;2024-03-23T13:33:23;6.70;;;0.70;;
58842;SDS011;44614;54.356;10.100;2024-03-23T13:35:51;0.95;;;0.43;;
58842;SDS011;44614;54.356;10.100;2024-03-23T13:38:17;3.13;;;0.50;;
58842;SDS011;44614;54.356;10.100;2024-03-23T13:40:53;0.38;;;0.38;;
58842;SDS011;44614;54.356;10.100;2024-03-23T13:43:19;2.38;;;0.40;;
58842;SDS011;44614;54.356;10.100;2024-03-23T13:45:46;1.70;;;0.63;;
58842;SDS011;44614;54.356;10.100;2024-03-23T13:48:12;6.28;;;1.23;;
58842;SDS011;44614;54.356;10.100;2024-03-23T13:50:38;3.53;;;0.68;;
58842;SDS011;44614;54.356;10.100;2024-03-23T13:53:03;2.27;;;0.80;;
58842;SDS011;44614;54.356;10.100;2024-03-23T13:55:29;1.73;;;0.70;;
58842;SDS011;44614;54.356;10.100;2024-03-23T13:57:54;1.40;;;0.50;;
58842;SDS011;44614;54.356;10.100;2024-03-23T14:00:20;3.05;;;1.00;;
58842;SDS011;44614;54.356;10.100;2024-03-23T14:02:45;4.77;;;0.70;;
58842;SDS011;44614;54.356;10.100;2024-03-23T14:05:11;0.20;;;0.20;;
58842;SDS011;44614;54.356;10.100;2024-03-23T14:07:36;4.40;;;1.10;;
58842;SDS011;44614;54.356;10.100;2024-03-23T14:10:05;5.32;;;0.68;;
58842;SDS011;44614;54.356;10.100;2024-03-23T14:12:36;1.05;;;0.40;;
58842;SDS011;44614;54.356;10.100;2024-03-23T14:15:04;3.90;;;0.52;;
58842;SDS011;44614;54.356;10.100;2024-03-23T14:17:30;2.13;;;0.50;;
58842;SDS011;44614;54.356;10.100;2024-03-23T14:19:56;4.57;;;0.57;;
58842;SDS011;44614;54.356;10.100;2024-03-23T14:22:26;2.10;;;0.77;;
58842;SDS011;44614;54.356;10.100;2024-03-23T14:24:54;5.22;;;1.10;;
58842;SDS011;44614;54.356;10.100;2024-03-23T14:27:20;5.53;;;0.73;;
58842;SDS011;44614;54.356;10.100;2024-03-23T14:29:46;4.45;;;1.60;;
58842;SDS011;44614;54.356;10.100;2024-03-23T14:32:12;8.07;;;1.17;;
58842;SDS011;44614;54.356;10.100;2024-03-23T14:34:38;7.63;;;1.40;;
58842;SDS011;44614;54.356;10.100;2024-03-23T14:37:04;9.43;;;1.27;;
58842;SDS011;44614;54.356;10.100;2024-03-23T14:39:30;4.90;;;1.13;;
58842;SDS011;44614;54.356;10.100;2024-03-23T14:41:56;6.10;;;1.80;;
58842;SDS011;44614;54.356;10.100;2024-03-23T14:44:22;5.05;;;1.17;;
58842;SDS011;44614;54.356;10.100;2024-03-23T14:46:47;6.60;;;0.80;;
58842;SDS011;44614;54.356;10.100;2024-03-23T14:49:14;8.63;;;0.80;;
58842;SDS011;44614;54.356;10.100;2024-03-23T14:51:43;4.20;;;1.13;;
58842;SDS011;44614;54.356;10.100;2024-03-23T14:54:08;15.32;;;1.90;;
58842;SDS011;44614;54.356;10.100;2024-03-23T14:56:34;10.80;;;1.17;;
58842;SDS011;44614;54.356;10.100;2024-03-23T14:59:00;5.93;;;1.23;;
58842;SDS011;44614;54.356;10.100;2024-03-23T15:01:25;6.65;;;1.77;;
58842;SDS011;44614;54.356;10.100;2024-03-23T15:03:51;7.77;;;1.63;;
58842;SDS011;44614;54.356;10.100;2024-03-23T15:06:18;5.68;;;1.58;;
58842;SDS011;44614;54.356;10.100;2024-03-23T15:08:44;5.10;;;1.35;;
58842;SDS011;44614;54.356;10.100;2024-03-23T15:11:10;7.63;;;1.63;;
58842;SDS011;44614;54.356;10.100;2024-03-23T15:13:35;8.48;;;1.10;;
58842;SDS011;44614;54.356;10.100;2024-03-23T15:16:02;10.85;;;1.52;;
58842;SDS011;44614;54.356;10.100;2024-03-23T15:18:29;5.78;;;1.35;;
58842;SDS011;44614;54.356;10.100;2024-03-23T15:20:58;6.82;;;1.00;;
58842;SDS011;44614;54.356;10.100;2024-03-23T15:23:29;6.03;;;1.20;;
58842;SDS011;44614;54.356;10.100;2024-03-23T15:25:55;4.78;;;1.80;;
58842;SDS011;44614;54.356;10.100;2024-03-23T15:28:21;6.53;;;1.98;;
58842;SDS011;44614;54.356;10.100;2024-03-23T15:30:48;10.30;;;1.75;;
58842;SDS011;44614;54.356;10.100;2024-03-23T15:33:13;7.03;;;1.05;;
58842;SDS011;44614;54.356;10.100;2024-03-23T15:35:38;4.93;;;1.27;;
58842;SDS011;44614;54.356;10.100;2024-03-23T15:38:04;3.42;;;1.10;;
58842;SDS011;44614;54.356;10.100;2024-03-23T15:40:29;9.38;;;1.25;;